Latest Weather Observations for Troughton Island

IDW60801

Issued at 11:03 pm WST Tuesday 21 May 2019 (issued every 10 minutes, with the page automatically refreshed every 10 minutes)

About weather observations | Map of weather stations | Latest weather observations for WA | Other Formats
Station Details ID: 001007 Name: TROUGHTON ISLAND Lat: -13.75 Lon: 126.15 Height: 6.0 m
Data from the previous 72 hours. | See also: Recent months at Troughton Island
Date/Time
WST
Temp
°C
App
Temp
°C
Dew
Point
°C
Rel
Hum
%
Delta-T
°C
Wind Press
QNH
hPa
Press
MSL
hPa
Rain since
9am
mm
Dir  Spd
km/h
Gust
km/h
Spd
kts
Gust
kts
21/11:00pm 27.5 32.4 24.6 84 2.0 ENE 7 9 4 5 1015.1 1015.0 0.0
21/10:30pm 27.7 31.9 24.7 84 2.1 ENE 11 15 6 8 1015.0 1014.9 0.0
21/10:00pm 27.7 31.1 24.7 84 2.1 ENE 15 19 8 10 1014.8 1014.7 0.0
21/09:30pm 27.7 31.0 25.1 86 1.8 ENE 17 20 9 11 1014.7 1014.6 0.0
21/09:00pm 27.7 31.1 25.3 87 1.7 ENE 17 22 9 12 1014.8 1014.7 0.0
21/08:30pm 27.8 30.6 25.0 85 2.0 ENE 19 24 10 13 1014.8 1014.7 0.0
21/08:00pm 27.8 30.6 25.2 86 1.8 ENE 20 26 11 14 1014.7 1014.6 0.0
21/07:30pm 27.9 30.4 24.7 83 2.2 ENE 20 26 11 14 1014.6 1014.5 0.0
21/07:00pm 28.0 30.5 24.4 81 2.5 NE 19 22 10 12 1014.4 1014.3 0.0
21/06:30pm 28.0 31.0 24.0 79 2.8 NE 15 19 8 10 1014.1 1014.0 0.0
21/06:00pm 28.1 31.2 24.1 79 2.8 NE 15 19 8 10 1013.9 1013.8 0.0
21/05:30pm 28.4 31.1 23.5 75 3.4 NE 15 19 8 10 1013.5 1013.4 0.0
21/05:00pm 29.1 31.7 23.3 71 4.0 NE 15 20 8 11 1013.4 1013.3 0.0
21/04:30pm 29.8 31.8 23.0 67 4.7 NE 17 22 9 12 1013.1 1013.0 0.0
21/04:00pm 30.3 32.8 23.2 65 4.9 NE 15 17 8 9 1013.0 1012.9 0.0
21/03:30pm 30.2 34.0 24.1 70 4.2 NE 11 15 6 8 1012.8 1012.7 0.0
21/03:00pm 30.6 34.5 24.3 69 4.4 ENE 11 15 6 8 1012.7 1012.6 0.0
21/02:30pm 30.0 33.7 23.9 70 4.2 ENE 11 15 6 8 1012.6 1012.5 0.0
21/02:00pm 30.6 35.0 25.0 72 3.9 NNE 11 15 6 8 1012.5 1012.4 0.0
21/01:30pm 29.7 33.9 24.8 75 3.4 ENE 11 15 6 8 1012.7 1012.6 0.0
21/01:00pm 30.1 34.4 24.9 73 3.6 NE 11 15 6 8 1012.9 1012.8 0.0
21/12:30pm 30.9 35.3 25.0 71 4.2 ENE 11 13 6 7 1013.3 1013.2 0.0
21/12:00pm 30.0 34.4 24.4 72 3.9 NE 9 13 5 7 1013.6 1013.5 0.0
21/11:30am 30.0 34.4 24.4 72 3.9 ENE 9 13 5 7 1014.2 1014.1 0.0
21/11:00am 30.1 34.7 24.7 73 3.8 E 9 13 5 7 1014.5 1014.4 0.0
21/10:30am 30.6 35.4 24.5 70 4.3 NE 7 11 4 6 1014.9 1014.8 0.0
21/10:00am 30.5 36.0 24.6 70 4.1 N 4 9 2 5 1015.0 1014.9 0.0
21/09:30am 30.9 36.8 25.3 72 4.0 E 4 9 2 5 1015.2 1015.1 0.0
21/09:00am 29.8 35.0 25.1 76 3.3 SSW 7 11 4 6 1015.1 1015.0 0.0
21/08:30am 29.1 33.7 24.7 77 3.1 S 9 13 5 7 1015.1 1015.0 0.0
21/08:00am 29.0 33.0 25.0 79 2.8 S 13 17 7 9 1015.0 1014.9 0.0
21/07:30am 28.6 32.5 24.8 80 2.7 S 13 17 7 9 1014.9 1014.8 0.0
21/07:00am 28.1 32.1 25.1 84 2.1 SSW 13 17 7 9 1014.6 1014.5 0.0
21/06:30am 27.5 31.5 25.1 87 1.7 SSW 13 17 7 9 1014.4 1014.3 0.0
21/06:00am 26.9 30.8 24.9 89 1.4 SSW 13 15 7 8 1014.2 1014.1 0.0
21/05:30am 26.8 30.5 24.6 88 1.5 SSW 13 17 7 9 1014.0 1013.9 0.0
21/05:00am 26.9 30.3 24.7 88 1.5 SSW 15 17 8 9 1013.7 1013.6 0.0
21/04:30am 26.9 30.6 24.5 87 1.7 SSW 13 15 7 8 1013.6 1013.5 0.0
21/04:00am 27.0 30.5 24.8 88 1.5 SSW 15 20 8 11 1013.5 1013.4 0.0
21/03:30am 27.2 30.3 24.8 87 1.7 SSW 17 20 9 11 1013.5 1013.4 0.0
21/03:00am 27.2 30.4 25.0 88 1.5 SSW 17 20 9 11 1013.6 1013.5 0.0
21/02:30am 27.1 30.3 24.9 88 1.5 SSW 17 20 9 11 1013.8 1013.7 0.0
21/02:00am 27.1 31.9 25.1 89 1.4 SSW 9 19 5 10 1013.9 1013.8 0.0
21/01:30am 27.4 32.5 24.1 82 2.3 ENE 4 7 2 4 1013.9 1013.8 0.0
21/01:00am 27.7 31.1 24.1 81 2.5 NE 13 15 7 8 1013.8 1013.7 0.0
21/12:30am 27.8 31.0 24.4 82 2.4 NE 15 20 8 11 1013.9 1013.8 0.0
21/12:00am 27.8 30.5 24.8 84 2.1 NE 19 22 10 12 1014.1 1014.0 0.0
 
Date/Time
WST
Temp
°C
App
Temp
°C
Dew
Point
°C
Rel
Hum
%
Delta-T
°C
Wind Press
QNH
hPa
Press
MSL
hPa
Rain since
9am
mm
Dir  Spd
km/h
Gust
km/h
Spd
kts
Gust
kts
20/11:30pm 27.9 31.1 24.9 84 2.1 NE 17 20 9 11 1014.3 1014.2 0.0
20/11:00pm 27.9 30.8 24.5 82 2.4 NE 17 20 9 11 1014.5 1014.4 0.0
20/10:30pm 27.9 30.3 24.3 81 2.5 NE 19 24 10 13 1014.8 1014.7 0.0
20/10:00pm 28.0 30.3 24.4 81 2.5 NE 20 26 11 14 1015.0 1014.9 0.0
20/09:30pm 28.0 29.9 24.4 81 2.5 NE 22 28 12 15 1015.0 1014.9 0.0
20/09:00pm 27.9 30.2 24.5 82 2.4 NE 20 24 11 13 1014.9 1014.8 0.0
20/08:30pm 27.9 30.1 24.3 81 2.5 NE 20 24 11 13 1014.8 1014.7 0.0
20/08:00pm 27.9 30.4 24.5 82 2.4 NE 19 20 10 11 1014.7 1014.6 0.0
20/07:30pm 28.0 30.5 24.4 81 2.5 NE 19 22 10 12 1014.5 1014.4 0.0
20/07:00pm 28.1 30.4 24.5 81 2.5 NE 20 26 11 14 1014.3 1014.2 0.0
20/06:30pm 28.1 30.4 24.5 81 2.5 NE 20 24 11 13 1013.8 1013.7 0.0
20/06:00pm 28.2 30.7 24.8 82 2.4 NE 20 24 11 13 1013.3 1013.2 0.0
20/05:30pm 28.3 30.8 24.7 81 2.5 NE 20 26 11 14 1013.1 1013.0 0.0
20/05:00pm 28.6 31.6 24.6 79 2.8 NE 17 22 9 12 1013.1 1013.0 0.0
20/04:30pm 29.2 32.9 24.5 76 3.3 NE 13 17 7 9 1013.1 1013.0 0.0
20/04:00pm 29.8 33.3 24.9 75 3.4 ENE 15 20 8 11 1013.1 1013.0 0.0
20/03:30pm 30.1 34.1 25.6 77 3.2 ENE 15 20 8 11 1012.8 1012.7 0.0
20/03:00pm 29.9 33.0 25.4 77 3.2 ENE 19 24 10 13 1012.9 1012.8 0.0
20/02:30pm 30.0 32.7 25.1 75 3.4 ENE 20 26 11 14 1012.8 1012.7 0.0
20/02:00pm 30.1 32.7 24.9 73 3.6 ENE 20 26 11 14 1012.9 1012.8 0.0
20/01:30pm 30.4 32.2 24.8 72 3.9 E 24 30 13 16 1013.1 1013.0 0.0
20/01:00pm 30.1 30.8 24.3 71 4.0 E 28 35 15 19 1013.4 1013.3 0.0
20/12:30pm 30.3 30.8 24.0 69 4.4 E 28 35 15 19 1013.8 1013.7 0.0
20/12:00pm 30.6 31.1 24.0 68 4.6 ENE 28 33 15 18 1014.3 1014.2 0.0
20/11:30am 30.4 31.9 23.1 65 5.0 E 20 26 11 14 1014.6 1014.5 0.0
20/11:00am 31.1 31.9 22.4 60 5.9 E 22 30 12 16 1014.8 1014.7 0.0
20/10:30am 30.9 32.4 23.0 62 5.4 ESE 20 24 11 13 1015.1 1015.0 0.0
20/10:00am 30.8 33.0 23.2 64 5.2 ESE 17 22 9 12 1015.3 1015.2 0.0
20/09:30am 31.0 31.9 22.6 61 5.7 SE 22 24 12 13 1015.5 1015.4 0.0
20/09:00am 30.2 31.9 23.1 65 4.9 SE 19 24 10 13 1015.6 1015.5 0.0
20/08:30am 29.1 32.0 23.8 73 3.7 SSE 15 19 8 10 1015.5 1015.4 0.0
20/08:00am 28.8 31.2 23.7 74 3.5 SSE 17 20 9 11 1015.3 1015.2 0.0
20/07:30am 28.3 31.2 23.9 77 3.0 SSE 15 20 8 11 1015.0 1014.9 0.0
20/07:00am 27.6 31.0 24.0 81 2.5 SSE 13 17 7 9 1014.8 1014.7 0.0
20/06:30am 27.2 31.0 24.7 86 1.7 SSE 13 17 7 9 1014.5 1014.4 0.0
20/06:00am 26.8 30.3 24.8 89 1.4 S 15 19 8 10 1014.1 1014.0 0.0
20/05:30am 26.7 30.2 24.9 90 1.3 SSE 15 19 8 10 1013.7 1013.6 0.0
20/05:00am 26.7 30.1 24.7 89 1.4 SSE 15 19 8 10 1013.6 1013.5 0.0
20/04:30am 26.9 29.6 24.2 85 1.9 S 17 20 9 11 1013.5 1013.4 0.0
20/04:00am 26.9 29.6 24.2 85 1.9 S 17 19 9 10 1013.3 1013.2 0.0
20/03:30am 26.6 30.4 24.1 86 1.7 S 11 15 6 8 1013.2 1013.1 0.0
20/03:00am 26.4 30.8 24.4 89 1.4 SSE 9 11 5 6 1013.3 1013.2 0.0
20/02:30am 26.3 30.9 24.2 88 1.4 SSE 7 9 4 5 1013.4 1013.3 0.0
20/02:00am 26.4 30.9 24.6 90 1.2 SSE 9 11 5 6 1013.4 1013.3 0.0
20/01:30am 26.6 32.7 24.4 88 1.5 CALM 0 0 0 0 1013.6 1013.5 0.0
20/01:00am 26.9 32.0 24.9 89 1.4 SSE 7 9 4 5 1013.8 1013.7 0.0
20/12:30am 27.1 31.5 25.1 89 1.4 S 11 13 6 7 1014.1 1014.0 0.0
20/12:00am 27.1 31.9 25.1 89 1.4 S 9 11 5 6 1014.1 1014.0 0.0
 
Date/Time
WST
Temp
°C
App
Temp
°C
Dew
Point
°C
Rel
Hum
%
Delta-T
°C
Wind Press
QNH
hPa
Press
MSL
hPa
Rain since
9am
mm
Dir  Spd
km/h
Gust
km/h
Spd
kts
Gust
kts
19/11:30pm 26.9 32.7 25.1 90 1.3 SSE 4 9 2 5 1014.2 1014.1 0.0
19/11:00pm 26.9 32.2 24.9 89 1.4 SSE 6 6 3 3 1014.5 1014.4 0.0
19/10:30pm 27.1 32.2 25.5 91 1.1 SSE 9 11 5 6 1014.6 1014.5 0.0
19/10:00pm 26.8 33.0 24.6 88 1.5 CALM 0 0 0 0 1014.8 1014.7 0.0
19/09:30pm 26.9 32.8 24.7 88 1.5 SE 2 6 1 3 1015.0 1014.9 0.0
19/09:00pm 26.9 33.0 24.5 87 1.7 CALM 0 0 0 0 1014.9 1014.8 0.0
19/08:30pm 27.4 34.0 25.2 88 1.5 CALM 0 0 0 0 1014.6 1014.5 0.0
19/08:00pm 27.1 33.3 24.6 86 1.7 CALM 0 0 0 0 1014.6 1014.5 0.0
19/07:30pm 27.7 33.7 24.9 85 2.0 NNE 2 7 1 4 1014.1 1014.0 0.0
19/07:00pm 27.9 34.3 24.9 84 2.1 CALM 0 0 0 0 1014.0 1013.9 0.0
19/06:30pm 28.0 33.0 24.8 83 2.2 N 7 9 4 5 1013.6 1013.5 0.0
19/06:00pm 28.1 33.2 24.9 83 2.2 NNE 7 9 4 5 1013.4 1013.3 0.0
19/05:30pm 28.2 32.7 24.6 81 2.5 N 9 11 5 6 1012.9 1012.8 0.0
19/05:00pm 28.5 32.8 24.9 81 2.5 N 11 15 6 8 1012.8 1012.7 0.0
19/04:30pm 29.0 32.6 24.3 76 3.3 N 13 15 7 8 1012.5 1012.4 0.0
19/04:00pm 29.9 33.5 24.3 72 3.9 N 13 15 7 8 1012.6 1012.5 0.0
19/03:30pm 30.1 33.8 25.2 75 3.5 N 15 17 8 9 1012.2 1012.1 0.0
19/03:00pm 30.7 34.6 25.5 74 3.7 N 15 19 8 10 1012.2 1012.1 0.0
19/02:30pm 30.1 34.0 25.4 76 3.3 NNW 15 19 8 10 1012.3 1012.2 0.0
19/02:00pm 30.4 34.5 25.2 74 3.7 N 13 17 7 9 1012.5 1012.4 0.0
19/01:30pm 30.7 35.0 25.5 74 3.7 NW 13 17 7 9 1012.6 1012.5 0.0
19/01:00pm 30.3 34.7 25.1 73 3.7 W 11 13 6 7 1013.0 1012.9 0.0
19/12:30pm 30.0 34.5 24.6 73 3.8 SSW 9 13 5 7 1013.3 1013.2 0.0
19/12:00pm 30.2 34.8 24.8 73 3.8 S 9 11 5 6 1013.8 1013.7 0.0
19/11:30am 30.0 34.7 24.9 74 3.6 W 9 11 5 6 1014.3 1014.2 0.0
19/11:00am 29.8 34.9 24.9 75 3.4 SSW 7 9 4 5 1014.6 1014.5 0.0
19/10:30am 30.3 35.4 25.6 76 3.3 S 9 11 5 6 1014.9 1014.8 0.0
19/10:00am 29.8 34.7 25.3 77 3.2 S 9 11 5 6 1015.2 1015.1 0.0
19/09:30am 29.3 33.7 24.4 75 3.4 S 9 11 5 6 1015.4 1015.3 0.0
19/09:00am 29.4 34.2 24.5 75 3.4 SSE 7 9 4 5 1015.5 1015.4 0.0
19/08:30am 29.1 33.9 24.4 76 3.3 SSE 7 9 4 5 1015.4 1015.3 0.0
19/08:00am 28.9 33.8 24.7 78 2.9 SSE 7 11 4 6 1015.1 1015.0 0.0
19/07:30am 28.3 32.9 24.7 81 2.5 SW 9 11 5 6 1014.9 1014.8 0.0
19/07:00am 27.9 32.1 24.7 83 2.2 SW 11 13 6 7 1014.6 1014.5 0.0
19/06:30am 26.9 31.5 24.7 88 1.5 SW 9 11 5 6 1014.3 1014.2 0.0
19/06:00am 26.3 30.6 24.3 89 1.4 S 9 11 5 6 1014.0 1013.9 0.0
19/05:30am 26.5 30.7 24.7 90 1.3 SSW 11 13 6 7 1013.8 1013.7 0.0
19/05:00am 26.6 30.3 24.6 89 1.4 SW 13 15 7 8 1013.6 1013.5 0.0
19/04:30am 26.6 30.5 24.8 90 1.3 SSW 13 15 7 8 1013.6 1013.5 0.0
19/04:00am 26.6 30.5 24.8 90 1.3 SSW 13 15 7 8 1013.6 1013.5 0.0
19/03:30am 26.9 30.8 24.9 89 1.4 SSW 13 17 7 9 1013.6 1013.5 0.0
19/03:00am 27.0 31.4 25.0 89 1.4 SSW 11 15 6 8 1013.7 1013.6 0.0
19/02:30am 26.9 32.1 25.1 90 1.3 SSW 7 11 4 6 1013.8 1013.7 0.0
19/02:00am 26.8 31.3 25.2 91 1.1 SW 11 11 6 6 1013.8 1013.7 0.0
19/01:30am 26.7 31.5 25.1 91 1.1 SW 9 11 5 6 1013.8 1013.7 0.0
19/01:00am 26.7 31.5 25.1 91 1.1 SW 9 11 5 6 1013.9 1013.8 0.0
19/12:30am 26.9 32.2 25.3 91 1.1 SW 7 9 4 5 1014.1 1014.0 0.0
19/12:00am 27.0 32.0 25.4 91 1.1 SSW 9 11 5 6 1014.4 1014.3 0.0
 
Date/Time
WST
Temp
°C
App
Temp
°C
Dew
Point
°C
Rel
Hum
%
Delta-T
°C
Wind Press
QNH
hPa
Press
MSL
hPa
Rain since
9am
mm
Dir  Spd
km/h
Gust
km/h
Spd
kts
Gust
kts
18/11:30pm 26.8 33.3 25.0 90 1.3 CALM 0 0 0 0 1014.6 1014.5 0.0

Other formats

Comma delimited format used in spreadsheet applications
http://www.bom.gov.au/fwo/IDW60801/IDW60801.94102.axf

JavaScript Object Notation format (JSON) in row-major order
http://www.bom.gov.au/fwo/IDW60801/IDW60801.94102.json

Data quality

Most of these data are generated automatically and are frequently updated. Quality checks on data are not normally performed. It is possible for incorrect values to appear. Refer to information at About Latest Weather Observations and please check the disclaimer before using these data.